American Lake, Washington
Current Conditions -  °F | °C
As of 10:08 PM on Wednesday 26 Nov 2014 (Local Time) from KGRF Reporting Station
Drizzle Drizzle  
Wind Chill: 15°   Ceiling: 9000
Heat Index: 15°   Visibility: 10mi
Dew Point: 10°   Wind: 12mph
Humidity: 72%   Direction: 190°S
Pressure: 29.9"   Gusts: NA
Location:  47.1451°N, 122.578°W
Report Text: KGRF 270608Z AUTO 19010KT 10SM DZ OVC090 15/10 A2990 RMK AO2
Loading
Personal Weather Stations






























Interactive Weather Map New forecast layout! Learn more

10-Day Weather Forecast

Advertisements
Track Severe Weather on mobile